Bangs, Texas
Current Conditions -  °F | °C
As of 2:15 AM on Thursday 18 Dec 2014 (Local Time) from KBWD Reporting Station
Haze Haze  
Wind Chill: 48°   Ceiling: 200
Heat Index: 48°   Visibility: 0.75mi
Dew Point: 48°   Wind: 3mph
Humidity: 100%   Direction: 120°ESE
Pressure: 30.09"   Gusts: NA
Location:  31.72°N, 99.13°W
Report Text: KBWD 180815Z AUTO 12003KT 3/4SM BR OVC002 09/09 A3009 RMK AO2
Loading
Personal Weather Stations






























Interactive Weather Map New forecast layout! Learn more

10-Day Weather Forecast

Advertisements
Track Severe Weather on mobile